Time;durP1;ratioP1;P1;durP2;ratioP2;P2;SDS_P1;SDS_P2;PMS_P1;PMS_P2;Temp;Humidity;BMP_temperature;BMP_pressure;BME280_temperature;BME280_humidity;BME280_pressure;Samples;Min_cycle;Max_cycle;Signal;HPM_P1;HPM_P2
2021/06/19 00:01:08;;;;;;;;;2.40;2.00;;;;;;;;5005032;28;8863;-84
2021/06/19 00:03:37;;;;;;;;;2.00;2.00;;;;;;;;5002526;28;8872;-84
2021/06/19 00:06:05;;;;;;;;;3.00;2.60;;;;;;;;5003935;28;8919;-83
2021/06/19 00:08:32;;;;;;;;;3.00;3.00;;;;;;;;5001693;28;8865;-83
2021/06/19 00:10:59;;;;;;;;;2.20;2.20;;;;;;;;5001881;28;8875;-85
2021/06/19 00:13:27;;;;;;;;;3.00;3.00;;;;;;;;5003836;28;8872;-85
2021/06/19 00:15:54;;;;;;;;;3.00;3.00;;;;;;;;5002954;28;8891;-85
2021/06/19 00:18:23;;;;;;;;;3.25;3.00;;;;;;;;5007967;28;8929;-86
2021/06/19 00:20:52;;;;;;;;;2.75;2.50;;;;;;;;5005208;28;8880;-82
2021/06/19 00:23:20;;;;;;;;;4.00;4.00;;;;;;;;5006607;28;8986;-83
2021/06/19 00:25:48;;;;;;;;;4.00;4.00;;;;;;;;5007700;28;8885;-86
2021/06/19 00:28:15;;;;;;;;;3.50;3.50;;;;;;;;4999900;28;8871;-84
2021/06/19 00:30:42;;;;;;;;;2.00;2.00;;;;;;;;5003674;28;8834;-82
2021/06/19 00:33:10;;;;;;;;;2.50;2.50;;;;;;;;5007776;28;8877;-85
2021/06/19 00:35:37;;;;;;;;;3.00;3.00;;;;;;;;5005209;28;8896;-82
2021/06/19 00:38:06;;;;;;;;;3.20;3.20;;;;;;;;5002397;28;8872;-82
2021/06/19 00:40:34;;;;;;;;;2.00;2.00;;;;;;;;5003158;28;9602;-82
2021/06/19 00:43:03;;;;;;;;;3.00;3.00;;;;;;;;5004202;28;8862;-83
2021/06/19 00:45:33;;;;;;;;;1.25;1.25;;;;;;;;5007847;28;8876;-85
2021/06/19 00:48:00;;;;;;;;;3.00;3.00;;;;;;;;5009858;28;8934;-82
2021/06/19 00:50:28;;;;;;;;;3.50;3.00;;;;;;;;4997610;28;8978;-82
2021/06/19 00:52:56;;;;;;;;;4.25;4.25;;;;;;;;5005389;28;8871;-82
2021/06/19 00:55:25;;;;;;;;;2.75;2.75;;;;;;;;5006407;28;8868;-81
2021/06/19 00:57:53;;;;;;;;;3.00;3.00;;;;;;;;4988892;28;8877;-82
2021/06/19 01:00:21;;;;;;;;;3.00;3.00;;;;;;;;5003370;28;8911;-83
2021/06/19 01:02:49;;;;;;;;;4.00;4.00;;;;;;;;5002990;28;8998;-83
2021/06/19 01:05:16;;;;;;;;;4.25;4.25;;;;;;;;5005271;28;9555;-82
2021/06/19 01:07:44;;;;;;;;;2.00;2.00;;;;;;;;5002517;28;9692;-84
2021/06/19 01:10:12;;;;;;;;;2.20;2.20;;;;;;;;5003768;28;8892;-87
2021/06/19 01:12:42;;;;;;;;;4.75;4.75;;;;;;;;5003526;28;8914;-83
2021/06/19 01:15:11;;;;;;;;;4.00;4.00;;;;;;;;5004526;28;8872;-82
2021/06/19 01:17:38;;;;;;;;;5.50;4.50;;;;;;;;5001212;28;8894;-82
2021/06/19 01:20:07;;;;;;;;;4.00;3.00;;;;;;;;5008379;28;8900;-81
2021/06/19 01:22:37;;;;;;;;;3.00;3.00;;;;;;;;5005308;28;8991;-85
2021/06/19 01:25:08;;;;;;;;;3.50;3.50;;;;;;;;5000925;28;8987;-83
2021/06/19 01:27:36;;;;;;;;;3.00;3.00;;;;;;;;5003704;28;8882;-86
2021/06/19 01:30:06;;;;;;;;;3.00;3.00;;;;;;;;5005024;28;8907;-82
2021/06/19 01:32:35;;;;;;;;;3.00;3.00;;;;;;;;5007243;28;8856;-83
2021/06/19 01:35:03;;;;;;;;;4.00;4.00;;;;;;;;5005612;28;8876;-82
2021/06/19 01:37:30;;;;;;;;;3.75;3.75;;;;;;;;5006161;28;8860;-85
2021/06/19 01:40:07;;;;;;;;;2.75;2.75;;;;;;;;5008620;28;8998;-81
2021/06/19 01:42:35;;;;;;;;;3.00;3.00;;;;;;;;5007246;28;8983;-81
2021/06/19 01:45:02;;;;;;;;;4.25;4.25;;;;;;;;5003164;28;9004;-85
2021/06/19 01:47:29;;;;;;;;;4.75;4.75;;;;;;;;5007632;28;8892;-83
2021/06/19 01:49:57;;;;;;;;;3.25;3.25;;;;;;;;5007189;28;8871;-83
2021/06/19 01:52:24;;;;;;;;;5.00;5.00;;;;;;;;5006070;28;8856;-83
2021/06/19 01:54:52;;;;;;;;;3.25;3.25;;;;;;;;5005683;28;8987;-80
2021/06/19 01:57:21;;;;;;;;;3.50;3.00;;;;;;;;5009428;28;9010;-84
2021/06/19 01:59:48;;;;;;;;;3.75;3.00;;;;;;;;5008204;28;8887;-82
2021/06/19 02:02:15;;;;;;;;;2.75;2.75;;;;;;;;5007528;28;8828;-82
2021/06/19 02:04:43;;;;;;;;;1.00;1.00;;;;;;;;5004977;28;9684;-82
2021/06/19 02:07:10;;;;;;;;;3.25;3.25;;;;;;;;5007908;28;9566;-82
2021/06/19 02:09:37;;;;;;;;;4.25;4.00;;;;;;;;5006441;28;8930;-81
2021/06/19 02:12:05;;;;;;;;;3.50;3.50;;;;;;;;5006579;28;9012;-82
2021/06/19 02:14:34;;;;;;;;;2.75;2.75;;;;;;;;5006477;28;8975;-82
2021/06/19 02:17:02;;;;;;;;;4.00;4.00;;;;;;;;5003254;28;8912;-84
2021/06/19 02:19:29;;;;;;;;;4.25;3.50;;;;;;;;4988828;28;8927;-82
2021/06/19 02:21:56;;;;;;;;;3.75;3.75;;;;;;;;5006057;28;9014;-84
2021/06/19 02:24:23;;;;;;;;;4.00;4.00;;;;;;;;5005483;28;8870;-87
2021/06/19 02:26:51;;;;;;;;;4.00;4.00;;;;;;;;5003394;28;8876;-81
2021/06/19 02:29:18;;;;;;;;;3.75;3.75;;;;;;;;5005597;28;9355;-82
2021/06/19 02:31:46;;;;;;;;;4.00;4.00;;;;;;;;5006089;28;8824;-84
2021/06/19 02:34:14;;;;;;;;;4.00;4.00;;;;;;;;5002088;28;8867;-83
2021/06/19 02:36:41;;;;;;;;;3.25;3.25;;;;;;;;5005614;28;8864;-82
2021/06/19 02:39:08;;;;;;;;;4.00;4.00;;;;;;;;5003774;28;8885;-82
2021/06/19 02:41:35;;;;;;;;;3.50;3.00;;;;;;;;5004990;28;8923;-85
2021/06/19 02:44:03;;;;;;;;;3.00;3.00;;;;;;;;5006332;28;8990;-82
2021/06/19 02:46:30;;;;;;;;;2.75;2.75;;;;;;;;5005063;28;8874;-83
2021/06/19 02:48:59;;;;;;;;;5.00;4.25;;;;;;;;5004386;28;8867;-83
2021/06/19 02:51:26;;;;;;;;;4.50;4.25;;;;;;;;5001420;28;8882;-83
2021/06/19 02:53:53;;;;;;;;;1.75;1.75;;;;;;;;5005538;28;9002;-83
2021/06/19 02:56:20;;;;;;;;;3.25;3.25;;;;;;;;5005016;28;9010;-87
2021/06/19 02:58:48;;;;;;;;;3.25;3.25;;;;;;;;5005860;28;8910;-86
2021/06/19 03:01:15;;;;;;;;;6.25;5.00;;;;;;;;5011520;28;8843;-84
2021/06/19 03:03:42;;;;;;;;;4.00;4.00;;;;;;;;5007885;28;9018;-87
2021/06/19 03:06:11;;;;;;;;;4.25;4.25;;;;;;;;5006383;28;8872;-84
2021/06/19 03:08:38;;;;;;;;;4.25;3.75;;;;;;;;5002703;28;8863;-88
2021/06/19 03:11:06;;;;;;;;;5.75;5.75;;;;;;;;5007788;28;8886;-83
2021/06/19 03:13:33;;;;;;;;;2.25;2.25;;;;;;;;5004669;28;8918;-82
2021/06/19 03:16:00;;;;;;;;;5.75;5.75;;;;;;;;5007256;28;8907;-85
2021/06/19 03:18:27;;;;;;;;;4.00;2.25;;;;;;;;5007412;28;8880;-82
2021/06/19 03:20:55;;;;;;;;;4.00;4.00;;;;;;;;5004663;28;8999;-81
2021/06/19 03:23:23;;;;;;;;;6.00;6.00;;;;;;;;5002713;28;8872;-85
2021/06/19 03:25:51;;;;;;;;;5.25;4.75;;;;;;;;5005151;28;8872;-81
2021/06/19 03:28:19;;;;;;;;;3.50;3.50;;;;;;;;5003992;28;8864;-84
2021/06/19 03:30:48;;;;;;;;;4.25;4.25;;;;;;;;5002247;28;8859;-83
2021/06/19 03:33:16;;;;;;;;;4.50;4.50;;;;;;;;5004654;28;8983;-81
2021/06/19 03:35:44;;;;;;;;;4.75;4.75;;;;;;;;5001390;28;8880;-83
2021/06/19 03:38:12;;;;;;;;;6.50;6.50;;;;;;;;5004613;28;8884;-83
2021/06/19 03:40:41;;;;;;;;;6.00;6.00;;;;;;;;5003932;28;8880;-81
2021/06/19 03:43:08;;;;;;;;;7.75;6.25;;;;;;;;5003568;28;8894;-81
2021/06/19 03:45:37;;;;;;;;;9.25;6.75;;;;;;;;5010249;28;8945;-81
2021/06/19 03:48:05;;;;;;;;;6.25;6.25;;;;;;;;5004095;28;9002;-83
2021/06/19 03:50:33;;;;;;;;;5.00;5.00;;;;;;;;5002278;28;8845;-82
2021/06/19 03:53:00;;;;;;;;;6.00;6.00;;;;;;;;5002335;28;8908;-83
2021/06/19 03:55:28;;;;;;;;;4.25;4.25;;;;;;;;5004592;28;8860;-84
2021/06/19 03:57:59;;;;;;;;;5.75;4.00;;;;;;;;5006854;28;8990;-84
2021/06/19 04:00:27;;;;;;;;;4.00;4.00;;;;;;;;5003027;28;8835;-83
2021/06/19 04:02:54;;;;;;;;;4.75;4.75;;;;;;;;5001599;28;8890;-81
2021/06/19 04:05:22;;;;;;;;;4.00;4.00;;;;;;;;5001244;28;8892;-82
2021/06/19 04:07:49;;;;;;;;;6.25;6.25;;;;;;;;5004326;28;8851;-82
2021/06/19 04:10:18;;;;;;;;;7.00;6.25;;;;;;;;5003459;28;8970;-83
2021/06/19 04:12:45;;;;;;;;;5.00;5.00;;;;;;;;5003649;28;8991;-83
2021/06/19 04:15:14;;;;;;;;;5.00;5.00;;;;;;;;5001467;28;8983;-86
2021/06/19 04:17:42;;;;;;;;;5.50;5.50;;;;;;;;5003555;28;9003;-83
2021/06/19 04:20:12;;;;;;;;;7.00;7.00;;;;;;;;5002680;28;8997;-82
2021/06/19 04:22:40;;;;;;;;;10.25;7.00;;;;;;;;5003388;28;8868;-81
2021/06/19 04:25:08;;;;;;;;;9.00;9.00;;;;;;;;5006245;28;8955;-82
2021/06/19 04:27:40;;;;;;;;;8.00;8.00;;;;;;;;5004168;28;9579;-84
2021/06/19 04:30:09;;;;;;;;;6.00;6.00;;;;;;;;5003342;28;8872;-82
2021/06/19 04:32:38;;;;;;;;;6.25;6.25;;;;;;;;5003775;28;8876;-83
2021/06/19 04:35:06;;;;;;;;;9.00;7.50;;;;;;;;5001962;28;8880;-85
2021/06/19 04:37:34;;;;;;;;;8.50;8.00;;;;;;;;5004752;28;9010;-86
2021/06/19 04:40:07;;;;;;;;;8.50;5.00;;;;;;;;5003910;28;8924;-85
2021/06/19 04:42:39;;;;;;;;;7.75;6.75;;;;;;;;5003129;28;8880;-87
2021/06/19 04:45:08;;;;;;;;;5.00;5.00;;;;;;;;5001232;28;8868;-85
2021/06/19 04:47:38;;;;;;;;;9.25;7.25;;;;;;;;5007618;28;8855;-83
2021/06/19 04:50:08;;;;;;;;;7.75;7.75;;;;;;;;5001857;28;8891;-83
2021/06/19 04:52:39;;;;;;;;;8.00;8.00;;;;;;;;5005016;28;8985;-82
2021/06/19 04:55:08;;;;;;;;;10.25;10.25;;;;;;;;5002250;28;9777;-82
2021/06/19 04:57:35;;;;;;;;;7.75;7.25;;;;;;;;5002315;28;8860;-81
2021/06/19 05:00:02;;;;;;;;;6.75;6.75;;;;;;;;5000667;28;8876;-82
2021/06/19 05:02:29;;;;;;;;;8.00;8.00;;;;;;;;4999848;28;9709;-82
2021/06/19 05:04:58;;;;;;;;;9.00;9.00;;;;;;;;5007478;28;8912;-86
2021/06/19 05:07:26;;;;;;;;;8.00;8.00;;;;;;;;5003028;28;8864;-85
2021/06/19 05:09:53;;;;;;;;;11.25;11.25;;;;;;;;5005588;28;9725;-86
2021/06/19 05:12:20;;;;;;;;;8.00;8.00;;;;;;;;5003530;28;8964;-80
2021/06/19 05:14:48;;;;;;;;;9.25;8.25;;;;;;;;5004944;28;8870;-83
2021/06/19 05:17:15;;;;;;;;;10.50;8.75;;;;;;;;5002914;28;8886;-84
2021/06/19 05:19:42;;;;;;;;;10.00;9.50;;;;;;;;5000562;28;8910;-83
2021/06/19 05:22:11;;;;;;;;;7.50;7.50;;;;;;;;5004246;28;8991;-83
2021/06/19 05:24:38;;;;;;;;;9.50;9.50;;;;;;;;5003084;28;8872;-85
2021/06/19 05:27:06;;;;;;;;;9.75;9.25;;;;;;;;5003890;28;9715;-82
2021/06/19 05:29:34;;;;;;;;;13.25;9.50;;;;;;;;5003717;28;8896;-83
2021/06/19 05:32:01;;;;;;;;;7.80;7.80;;;;;;;;5003004;28;9643;-81
2021/06/19 05:34:29;;;;;;;;;11.20;10.00;;;;;;;;5005373;28;8858;-83
2021/06/19 05:36:56;;;;;;;;;8.60;8.60;;;;;;;;5002227;28;9003;-77
2021/06/19 05:39:25;;;;;;;;;8.00;8.00;;;;;;;;4986219;28;8895;-77
2021/06/19 05:41:52;;;;;;;;;11.40;10.00;;;;;;;;5001333;28;8860;-75
2021/06/19 05:44:20;;;;;;;;;10.00;10.00;;;;;;;;5004549;28;8891;-76
2021/06/19 05:46:47;;;;;;;;;9.20;9.20;;;;;;;;5005798;28;8999;-76
2021/06/19 05:49:14;;;;;;;;;10.25;8.75;;;;;;;;5004657;28;8880;-81
2021/06/19 05:51:41;;;;;;;;;9.00;7.60;;;;;;;;5004913;28;8979;-81
2021/06/19 05:54:09;;;;;;;;;9.75;9.75;;;;;;;;5003158;28;8868;-88
2021/06/19 05:56:37;;;;;;;;;7.60;7.60;;;;;;;;5003755;28;8860;-78
2021/06/19 05:59:05;;;;;;;;;5.00;5.00;;;;;;;;5000733;28;8868;-85
2021/06/19 06:01:32;;;;;;;;;8.20;8.20;;;;;;;;5004054;28;8855;-86
2021/06/19 06:04:00;;;;;;;;;8.60;8.60;;;;;;;;5001742;28;8894;-83
2021/06/19 06:06:28;;;;;;;;;9.60;9.60;;;;;;;;5003781;28;8856;-81
2021/06/19 06:08:55;;;;;;;;;9.60;8.40;;;;;;;;5005463;28;8864;-79
2021/06/19 06:11:23;;;;;;;;;11.00;8.40;;;;;;;;5004628;28;8880;-86
2021/06/19 06:13:51;;;;;;;;;11.20;8.80;;;;;;;;5003149;28;8871;-80
2021/06/19 06:16:19;;;;;;;;;8.80;8.80;;;;;;;;4998927;28;8894;-77
2021/06/19 06:18:46;;;;;;;;;8.20;8.20;;;;;;;;5006055;28;8965;-83
2021/06/19 06:21:13;;;;;;;;;7.40;7.40;;;;;;;;4995022;28;8982;-78
2021/06/19 06:23:41;;;;;;;;;7.60;7.60;;;;;;;;5001678;28;8880;-81
2021/06/19 06:26:08;;;;;;;;;9.00;9.00;;;;;;;;5003429;28;8922;-79
2021/06/19 06:28:38;;;;;;;;;9.80;8.00;;;;;;;;5002180;28;8864;-85
2021/06/19 06:31:07;;;;;;;;;9.00;8.20;;;;;;;;5004725;28;8844;-80
2021/06/19 06:33:34;;;;;;;;;7.00;7.00;;;;;;;;5002940;28;8888;-84
2021/06/19 06:36:01;;;;;;;;;7.00;7.00;;;;;;;;5003927;28;8912;-81
2021/06/19 06:38:29;;;;;;;;;8.40;6.20;;;;;;;;5003486;28;9002;-89
2021/06/19 06:40:56;;;;;;;;;7.80;6.20;;;;;;;;5000927;28;8896;-78
2021/06/19 06:43:24;;;;;;;;;7.40;7.40;;;;;;;;5003200;28;8886;-88
2021/06/19 06:45:51;;;;;;;;;5.60;5.60;;;;;;;;5006335;28;8868;-87
2021/06/19 06:48:20;;;;;;;;;6.00;6.00;;;;;;;;5005830;28;8872;-79
2021/06/19 06:50:47;;;;;;;;;5.40;5.00;;;;;;;;5001472;28;8887;-82
2021/06/19 06:53:14;;;;;;;;;10.00;8.80;;;;;;;;5003596;28;8898;-82
2021/06/19 06:55:43;;;;;;;;;5.20;5.20;;;;;;;;5001263;28;8888;-73
2021/06/19 06:58:10;;;;;;;;;7.00;7.00;;;;;;;;5002892;28;9619;-77
2021/06/19 07:00:37;;;;;;;;;7.00;7.00;;;;;;;;4993829;28;8821;-81
2021/06/19 07:03:05;;;;;;;;;6.80;6.80;;;;;;;;5003127;28;8884;-83
2021/06/19 07:05:34;;;;;;;;;5.60;5.60;;;;;;;;5005316;28;8884;-77
2021/06/19 07:08:11;;;;;;;;;8.00;6.00;;;;;;;;5007229;28;8930;-77
2021/06/19 07:10:38;;;;;;;;;6.00;6.00;;;;;;;;5004430;28;8856;-82
2021/06/19 07:13:06;;;;;;;;;8.00;8.00;;;;;;;;5001505;28;8860;-78
2021/06/19 07:15:33;;;;;;;;;5.40;5.40;;;;;;;;5001925;28;8903;-85
2021/06/19 07:18:00;;;;;;;;;7.40;6.40;;;;;;;;4999590;28;8933;-84
2021/06/19 07:20:28;;;;;;;;;7.60;6.00;;;;;;;;5003380;28;8860;-78
2021/06/19 07:22:56;;;;;;;;;5.20;4.00;;;;;;;;5002156;28;8856;-83
2021/06/19 07:25:24;;;;;;;;;4.00;4.00;;;;;;;;5000845;28;9448;-87
2021/06/19 07:27:54;;;;;;;;;5.00;5.00;;;;;;;;5002355;28;8856;-86
2021/06/19 07:30:22;;;;;;;;;5.20;5.20;;;;;;;;5004354;28;8876;-83
2021/06/19 07:32:50;;;;;;;;;5.00;5.00;;;;;;;;5007225;28;8878;-81
2021/06/19 07:35:17;;;;;;;;;3.40;3.40;;;;;;;;5003751;28;8935;-80
2021/06/19 07:37:45;;;;;;;;;4.80;4.00;;;;;;;;5002662;28;8884;-79
2021/06/19 07:40:15;;;;;;;;;5.00;5.00;;;;;;;;5011878;28;8899;-87
2021/06/19 07:42:43;;;;;;;;;4.60;4.60;;;;;;;;5010806;28;8898;-90
2021/06/19 07:45:10;;;;;;;;;0.20;0.20;;;;;;;;5004211;28;8868;-90
2021/06/19 07:47:38;;;;;;;;;4.80;3.80;;;;;;;;5004173;28;8860;-87
2021/06/19 07:50:07;;;;;;;;;6.60;5.00;;;;;;;;5009843;28;8884;-83
2021/06/19 07:52:34;;;;;;;;;6.20;6.00;;;;;;;;5001512;28;9000;-87
2021/06/19 07:55:02;;;;;;;;;4.80;4.80;;;;;;;;5005750;28;8874;-81
2021/06/19 07:57:31;;;;;;;;;5.00;5.00;;;;;;;;4998674;28;8947;-84
2021/06/19 07:59:58;;;;;;;;;2.80;2.20;;;;;;;;5003127;28;8892;-84
2021/06/19 08:02:25;;;;;;;;;5.20;4.20;;;;;;;;5006663;28;8939;-84
2021/06/19 08:04:53;;;;;;;;;6.00;5.00;;;;;;;;5012729;28;8869;-85
2021/06/19 08:07:20;;;;;;;;;6.00;6.00;;;;;;;;5007992;28;9003;-81
2021/06/19 08:09:47;;;;;;;;;5.40;5.40;;;;;;;;5004483;28;8991;-85
2021/06/19 08:12:15;;;;;;;;;6.00;6.00;;;;;;;;4997091;28;8888;-85
2021/06/19 08:14:44;;;;;;;;;6.00;6.00;;;;;;;;5006531;28;8884;-87
2021/06/19 08:17:16;;;;;;;;;5.20;5.20;;;;;;;;5003587;28;8879;-79
2021/06/19 08:19:45;;;;;;;;;5.00;5.00;;;;;;;;5004282;28;8860;-84
2021/06/19 08:22:13;;;;;;;;;5.60;4.80;;;;;;;;4995936;28;8977;-80
2021/06/19 08:24:41;;;;;;;;;4.40;4.40;;;;;;;;5004602;28;9005;-82
2021/06/19 08:27:09;;;;;;;;;5.00;5.00;;;;;;;;5003921;28;10411;-85
2021/06/19 08:29:37;;;;;;;;;4.00;4.00;;;;;;;;5003734;28;8945;-85
2021/06/19 08:32:08;;;;;;;;;5.00;5.00;;;;;;;;5006308;28;8889;-84
2021/06/19 08:34:36;;;;;;;;;7.80;6.20;;;;;;;;5007682;28;8880;-83
2021/06/19 08:37:03;;;;;;;;;4.60;3.20;;;;;;;;5003387;28;8953;-86
2021/06/19 08:39:30;;;;;;;;;7.40;7.40;;;;;;;;5002965;28;8872;-81
2021/06/19 08:41:58;;;;;;;;;6.40;6.00;;;;;;;;4998714;28;8945;-86
2021/06/19 08:44:26;;;;;;;;;4.80;4.80;;;;;;;;4999385;28;9006;-86
2021/06/19 08:46:55;;;;;;;;;4.40;4.40;;;;;;;;5005000;28;8873;-85
2021/06/19 08:49:25;;;;;;;;;6.60;6.60;;;;;;;;5002409;28;9637;-85
2021/06/19 08:51:54;;;;;;;;;6.40;6.00;;;;;;;;5001815;28;8902;-83
2021/06/19 08:54:22;;;;;;;;;6.00;5.20;;;;;;;;5002758;28;8856;-86
2021/06/19 08:56:50;;;;;;;;;7.00;7.00;;;;;;;;5007696;28;9027;-85
2021/06/19 08:59:18;;;;;;;;;8.60;8.60;;;;;;;;5003532;28;8894;-86
2021/06/19 09:01:46;;;;;;;;;9.20;9.20;;;;;;;;5002452;28;8851;-82
2021/06/19 09:04:17;;;;;;;;;4.20;4.20;;;;;;;;4997210;28;8986;-80
2021/06/19 09:06:46;;;;;;;;;7.60;6.80;;;;;;;;4995073;28;10043;-83
2021/06/19 09:09:15;;;;;;;;;8.00;6.80;;;;;;;;5002292;28;9013;-81
2021/06/19 09:11:43;;;;;;;;;8.20;7.20;;;;;;;;5001787;28;8915;-81
2021/06/19 09:14:12;;;;;;;;;6.60;6.60;;;;;;;;5000224;28;8997;-82
2021/06/19 09:16:41;;;;;;;;;6.20;6.20;;;;;;;;5000531;28;8978;-80
2021/06/19 09:19:24;;;;;;;;;6.20;6.20;;;;;;;;5000737;28;8884;-81
2021/06/19 09:22:14;;;;;;;;;5.20;5.20;;;;;;;;5002912;28;8906;-85
2021/06/19 09:24:44;;;;;;;;;5.40;5.40;;;;;;;;5001577;28;9621;-81
2021/06/19 09:27:33;;;;;;;;;6.60;6.60;;;;;;;;5003469;28;8906;-85
2021/06/19 09:30:09;;;;;;;;;6.00;6.00;;;;;;;;5012868;28;8895;-88
2021/06/19 09:32:42;;;;;;;;;7.00;6.00;;;;;;;;5006629;28;8871;-90
2021/06/19 09:35:18;;;;;;;;;5.60;5.60;;;;;;;;5007798;28;9809;-92
2021/06/19 09:37:48;;;;;;;;;6.00;6.00;;;;;;;;5009039;28;8883;-90
2021/06/19 09:40:27;;;;;;;;;6.40;6.40;;;;;;;;5009746;28;9018;-92
2021/06/19 09:43:07;;;;;;;;;6.80;6.80;;;;;;;;5008374;28;8860;-91
2021/06/19 09:45:34;;;;;;;;;7.60;6.60;;;;;;;;5004548;28;8888;-94
2021/06/19 09:48:02;;;;;;;;;5.80;5.80;;;;;;;;5009605;28;8884;-90
2021/06/19 09:50:29;;;;;;;;;7.00;7.00;;;;;;;;5008782;28;8888;-89
2021/06/19 09:53:14;;;;;;;;;7.80;5.40;;;;;;;;5018243;28;9003;-85
2021/06/19 09:56:02;;;;;;;;;5.80;5.00;;;;;;;;5008848;28;8860;-95
2021/06/19 09:58:39;;;;;;;;;5.60;5.60;;;;;;;;5009988;28;8970;-94
2021/06/19 10:01:07;;;;;;;;;6.40;6.40;;;;;;;;5001576;28;8827;-89
2021/06/19 10:03:50;;;;;;;;;7.60;7.60;;;;;;;;5001186;28;8887;-86
2021/06/19 10:06:17;;;;;;;;;6.80;6.80;;;;;;;;5006327;28;8892;-89
2021/06/19 10:08:46;;;;;;;;;6.80;6.80;;;;;;;;5013507;28;8873;-91
2021/06/19 10:11:15;;;;;;;;;7.40;7.20;;;;;;;;5000646;28;8886;-89
2021/06/19 10:13:43;;;;;;;;;6.00;5.80;;;;;;;;5007126;28;8872;-83
2021/06/19 10:16:13;;;;;;;;;6.00;6.00;;;;;;;;5003498;28;8908;-83
2021/06/19 10:18:41;;;;;;;;;5.60;5.60;;;;;;;;5019188;28;8848;-95
2021/06/19 10:21:09;;;;;;;;;7.00;6.40;;;;;;;;5011387;28;8844;-89
2021/06/19 10:23:37;;;;;;;;;5.80;5.80;;;;;;;;5027677;28;8884;-82
2021/06/19 10:26:06;;;;;;;;;5.20;5.20;;;;;;;;5025476;28;8991;-90
2021/06/19 10:28:37;;;;;;;;;6.00;6.00;;;;;;;;5001788;28;8979;-92
2021/06/19 10:31:05;;;;;;;;;7.20;7.20;;;;;;;;5020773;28;8847;-84
2021/06/19 10:33:35;;;;;;;;;5.60;5.60;;;;;;;;5007582;28;8872;-93
2021/06/19 10:36:04;;;;;;;;;5.00;5.00;;;;;;;;4995634;28;8903;-81
2021/06/19 10:38:32;;;;;;;;;8.00;6.60;;;;;;;;5000615;28;8985;-81
2021/06/19 10:41:01;;;;;;;;;6.00;6.00;;;;;;;;5000744;28;8872;-80
2021/06/19 10:43:31;;;;;;;;;5.40;5.40;;;;;;;;5005143;28;8891;-86
2021/06/19 10:46:22;;;;;;;;;7.40;7.40;;;;;;;;5001882;28;8972;-84
2021/06/19 10:48:54;;;;;;;;;8.40;8.40;;;;;;;;5002601;28;8872;-89
2021/06/19 10:51:23;;;;;;;;;18.00;18.00;;;;;;;;5001756;28;8879;-83
2021/06/19 10:54:10;;;;;;;;;17.20;15.60;;;;;;;;5003515;28;8873;-84
2021/06/19 10:56:51;;;;;;;;;19.60;17.40;;;;;;;;4998767;28;9791;-82
2021/06/19 10:59:21;;;;;;;;;25.40;23.40;;;;;;;;4999037;28;8961;-91
2021/06/19 11:01:49;;;;;;;;;8.00;7.80;;;;;;;;4998622;28;8832;-86
2021/06/19 11:04:43;;;;;;;;;11.40;10.80;;;;;;;;5003447;28;8975;-81
2021/06/19 11:07:40;;;;;;;;;5.20;5.20;;;;;;;;4997433;28;8880;-83
2021/06/19 11:10:07;;;;;;;;;10.40;8.60;;;;;;;;5000696;28;8897;-83
2021/06/19 11:12:35;;;;;;;;;7.40;7.40;;;;;;;;5003925;28;8860;-81
2021/06/19 11:15:05;;;;;;;;;7.00;7.00;;;;;;;;5001031;28;9006;-83
2021/06/19 11:17:48;;;;;;;;;6.40;6.20;;;;;;;;5000735;28;8872;-83
2021/06/19 11:20:30;;;;;;;;;5.00;5.00;;;;;;;;4997114;28;8867;-83
2021/06/19 11:23:04;;;;;;;;;6.00;6.00;;;;;;;;4998194;28;8856;-79
2021/06/19 11:26:01;;;;;;;;;7.20;7.20;;;;;;;;4996826;28;8864;-79
2021/06/19 11:28:31;;;;;;;;;7.00;7.00;;;;;;;;4997800;28;8896;-83
2021/06/19 11:31:04;;;;;;;;;6.60;6.60;;;;;;;;4999695;28;8793;-84
2021/06/19 11:33:53;;;;;;;;;4.00;4.00;;;;;;;;4997869;28;8881;-83
2021/06/19 11:36:47;;;;;;;;;6.00;6.00;;;;;;;;5000007;28;8891;-84
2021/06/19 11:39:17;;;;;;;;;6.20;6.20;;;;;;;;4982167;28;8852;-82
2021/06/19 11:41:48;;;;;;;;;6.80;6.80;;;;;;;;4996938;28;8898;-81
2021/06/19 11:44:19;;;;;;;;;5.60;5.60;;;;;;;;5002319;28;8900;-80
2021/06/19 11:46:52;;;;;;;;;6.40;6.40;;;;;;;;4997097;28;8898;-80
2021/06/19 11:49:24;;;;;;;;;8.00;6.40;;;;;;;;5002820;28;8930;-81
2021/06/19 11:51:53;;;;;;;;;7.00;7.00;;;;;;;;4996160;28;8897;-81
2021/06/19 11:54:20;;;;;;;;;8.60;6.80;;;;;;;;5002310;28;8910;-81
2021/06/19 11:56:48;;;;;;;;;6.00;6.00;;;;;;;;4997202;28;8863;-83
2021/06/19 11:59:16;;;;;;;;;7.40;7.40;;;;;;;;5001615;28;8861;-84
2021/06/19 12:01:44;;;;;;;;;8.00;8.00;;;;;;;;4999777;28;8820;-86
2021/06/19 12:04:13;;;;;;;;;10.00;8.00;;;;;;;;5002212;28;9867;-80
2021/06/19 12:06:42;;;;;;;;;8.00;8.00;;;;;;;;5017600;28;8902;-82
2021/06/19 12:09:12;;;;;;;;;7.40;7.40;;;;;;;;5000337;28;8886;-82
2021/06/19 12:11:40;;;;;;;;;6.80;6.80;;;;;;;;5002472;28;8868;-82
2021/06/19 12:14:23;;;;;;;;;9.00;9.00;;;;;;;;5002964;28;8884;-82
2021/06/19 12:16:52;;;;;;;;;7.80;7.80;;;;;;;;5001496;28;8894;-81
2021/06/19 12:19:20;;;;;;;;;7.60;5.60;;;;;;;;4997307;28;8876;-83
2021/06/19 12:21:48;;;;;;;;;9.60;9.60;;;;;;;;5002185;28;9765;-81
2021/06/19 12:24:25;;;;;;;;;8.20;8.20;;;;;;;;5000813;28;8934;-82
2021/06/19 12:27:08;;;;;;;;;10.40;10.40;;;;;;;;5001533;28;8852;-84
2021/06/19 12:29:38;;;;;;;;;9.20;9.20;;;;;;;;5000096;28;8906;-78
2021/06/19 12:32:23;;;;;;;;;12.60;9.60;;;;;;;;4997355;28;8836;-83
2021/06/19 12:34:52;;;;;;;;;8.80;8.80;;;;;;;;4997910;28;8908;-83
2021/06/19 12:37:23;;;;;;;;;7.00;7.00;;;;;;;;5001618;28;8884;-80
2021/06/19 12:39:51;;;;;;;;;9.80;9.80;;;;;;;;5000747;28;8872;-82
2021/06/19 12:42:43;;;;;;;;;12.00;9.00;;;;;;;;5002462;28;8870;-81
2021/06/19 12:45:13;;;;;;;;;9.00;9.00;;;;;;;;5005798;28;8876;-84
2021/06/19 12:47:44;;;;;;;;;10.20;10.20;;;;;;;;5001337;28;9948;-86
2021/06/19 12:50:12;;;;;;;;;10.20;10.20;;;;;;;;5003421;28;8974;-87
2021/06/19 12:52:56;;;;;;;;;10.80;10.00;;;;;;;;5003263;28;8872;-87
2021/06/19 12:55:27;;;;;;;;;9.60;9.60;;;;;;;;4993495;28;9052;-82
2021/06/19 12:58:11;;;;;;;;;10.20;9.80;;;;;;;;5001856;28;8864;-80
2021/06/19 13:00:45;;;;;;;;;8.60;8.60;;;;;;;;4999219;28;8805;-86
2021/06/19 13:03:16;;;;;;;;;7.00;7.00;;;;;;;;5001593;28;8958;-88
2021/06/19 13:05:51;;;;;;;;;9.80;9.80;;;;;;;;5000720;28;8946;-86
2021/06/19 13:08:20;;;;;;;;;7.60;7.60;;;;;;;;5001915;28;8994;-81
2021/06/19 13:10:49;;;;;;;;;12.20;12.20;;;;;;;;5000621;28;8872;-80
2021/06/19 13:13:17;;;;;;;;;9.60;9.60;;;;;;;;5005048;28;8888;-82
2021/06/19 13:15:59;;;;;;;;;8.80;8.80;;;;;;;;4997300;28;8879;-81
2021/06/19 13:18:27;;;;;;;;;9.20;9.20;;;;;;;;4993598;28;8977;-82
2021/06/19 13:21:08;;;;;;;;;9.20;9.20;;;;;;;;4999666;28;8868;-82
2021/06/19 13:23:35;;;;;;;;;8.80;8.80;;;;;;;;5001212;28;8879;-81
2021/06/19 13:26:07;;;;;;;;;9.20;9.20;;;;;;;;5002893;28;8868;-82
2021/06/19 13:28:40;;;;;;;;;9.00;9.00;;;;;;;;4998249;28;8876;-82
2021/06/19 13:31:09;;;;;;;;;11.80;10.00;;;;;;;;4996748;28;8834;-80
2021/06/19 13:33:42;;;;;;;;;12.00;10.20;;;;;;;;5002042;28;8880;-81
2021/06/19 13:36:37;;;;;;;;;9.00;9.00;;;;;;;;5003718;28;8975;-84
2021/06/19 13:39:06;;;;;;;;;8.80;8.80;;;;;;;;5002508;28;8931;-82
2021/06/19 13:41:39;;;;;;;;;9.00;9.00;;;;;;;;5004805;28;8961;-85
2021/06/19 13:44:07;;;;;;;;;9.60;9.60;;;;;;;;5006480;28;8872;-84
2021/06/19 13:46:35;;;;;;;;;9.80;9.80;;;;;;;;5006607;28;8942;-85
2021/06/19 13:49:03;;;;;;;;;6.20;6.20;;;;;;;;4996079;28;8919;-83
2021/06/19 13:51:31;;;;;;;;;9.60;9.60;;;;;;;;5005821;28;8987;-84
2021/06/19 13:53:59;;;;;;;;;7.80;7.80;;;;;;;;5009491;28;8911;-82
2021/06/19 13:56:26;;;;;;;;;7.00;7.00;;;;;;;;5005576;28;9002;-82
2021/06/19 13:58:55;;;;;;;;;7.80;7.20;;;;;;;;5005169;28;8986;-83
2021/06/19 14:01:24;;;;;;;;;8.00;8.00;;;;;;;;5003702;28;8816;-80
2021/06/19 14:03:52;;;;;;;;;8.00;8.00;;;;;;;;5010562;28;8996;-83
2021/06/19 14:06:19;;;;;;;;;6.40;6.40;;;;;;;;5006733;28;8994;-84
2021/06/19 14:08:49;;;;;;;;;7.00;5.20;;;;;;;;5008929;28;8893;-82
2021/06/19 14:11:18;;;;;;;;;8.00;6.40;;;;;;;;5004891;28;8884;-83
2021/06/19 14:13:46;;;;;;;;;6.00;6.00;;;;;;;;5006242;28;8918;-84
2021/06/19 14:16:16;;;;;;;;;6.40;6.40;;;;;;;;5005339;28;8860;-81
2021/06/19 14:18:44;;;;;;;;;7.80;6.60;;;;;;;;5001935;28;8892;-84
2021/06/19 14:21:13;;;;;;;;;4.60;4.00;;;;;;;;5005176;28;8979;-84
2021/06/19 14:23:41;;;;;;;;;8.00;8.00;;;;;;;;5004503;28;8880;-85
2021/06/19 14:26:10;;;;;;;;;8.60;8.60;;;;;;;;5004190;28;8879;-80
2021/06/19 14:28:39;;;;;;;;;6.40;6.40;;;;;;;;5002386;28;8859;-84
2021/06/19 14:31:07;;;;;;;;;7.80;7.80;;;;;;;;5000800;28;8821;-84
2021/06/19 14:33:36;;;;;;;;;7.80;7.80;;;;;;;;5004449;28;8876;-85
2021/06/19 14:36:04;;;;;;;;;6.20;6.20;;;;;;;;5003310;28;8880;-85
2021/06/19 14:38:32;;;;;;;;;6.60;6.60;;;;;;;;5010362;28;8868;-83
2021/06/19 14:41:00;;;;;;;;;9.00;7.60;;;;;;;;4998307;28;8902;-83
2021/06/19 14:43:27;;;;;;;;;9.00;7.40;;;;;;;;5005264;28;8872;-82
2021/06/19 14:45:57;;;;;;;;;7.00;7.00;;;;;;;;5003270;28;9625;-84
2021/06/19 14:48:24;;;;;;;;;8.80;7.00;;;;;;;;5004606;28;8918;-85
2021/06/19 14:50:53;;;;;;;;;9.60;8.00;;;;;;;;5006256;28;9034;-81
2021/06/19 14:53:21;;;;;;;;;6.40;6.40;;;;;;;;5005917;28;8872;-84
2021/06/19 14:55:49;;;;;;;;;8.00;8.00;;;;;;;;5002253;28;8864;-86
2021/06/19 14:58:16;;;;;;;;;6.80;6.80;;;;;;;;5006659;28;9857;-85
2021/06/19 15:00:44;;;;;;;;;8.80;7.60;;;;;;;;5004593;28;9749;-86
2021/06/19 15:03:14;;;;;;;;;8.20;8.20;;;;;;;;5003397;28;8868;-83
2021/06/19 15:05:41;;;;;;;;;8.40;7.80;;;;;;;;5004384;28;8886;-84
2021/06/19 15:08:10;;;;;;;;;7.40;7.20;;;;;;;;5005721;28;8890;-82
2021/06/19 15:10:38;;;;;;;;;6.80;6.80;;;;;;;;5003907;28;8899;-80